Time;durP1;ratioP1;P1;durP2;ratioP2;P2;SDS_P1;SDS_P2;PMS_P1;PMS_P2;Temp;Humidity;BMP_temperature;BMP_pressure;BME280_temperature;BME280_humidity;BME280_pressure;Samples;Min_cycle;Max_cycle;Signal;HPM_P1;HPM_P2
2022/06/03 00:04:22;;;;;;;13.20;6.50;;;;;;;10.46;100.00;102164.09;10215818;28;20532;-66
2022/06/03 00:09:35;;;;;;;12.43;5.32;;;;;;;10.40;100.00;102167.97;10224374;28;20069;-66
2022/06/03 00:15:09;;;;;;;10.68;4.93;;;;;;;10.39;100.00;102163.59;10222582;28;20045;-66
2022/06/03 00:20:23;;;;;;;10.82;4.95;;;;;;;10.33;100.00;102162.00;10199572;28;20109;-66
2022/06/03 00:25:47;;;;;;;10.57;5.40;;;;;;;10.28;100.00;102170.16;10222977;28;20131;-66
2022/06/03 00:31:08;;;;;;;12.07;5.55;;;;;;;10.21;100.00;102170.50;10220461;28;20052;-66
2022/06/03 00:36:34;;;;;;;11.00;5.40;;;;;;;10.14;100.00;102167.22;10216395;28;20069;-66
2022/06/03 00:41:43;;;;;;;13.05;6.25;;;;;;;10.08;100.00;102166.44;10215832;28;20067;-66
2022/06/03 00:46:43;;;;;;;14.40;5.97;;;;;;;10.02;100.00;102161.25;10222401;28;20535;-66
2022/06/03 00:52:08;;;;;;;9.18;5.45;;;;;;;10.00;100.00;102152.50;10220756;28;20119;-66
2022/06/03 00:57:25;;;;;;;11.38;6.28;;;;;;;9.93;100.00;102155.53;10215794;28;20053;-66
2022/06/03 01:02:43;;;;;;;10.88;5.32;;;;;;;9.92;100.00;102161.31;10218232;28;20132;-66
2022/06/03 01:08:09;;;;;;;11.43;5.22;;;;;;;9.83;100.00;102161.84;10229011;28;20044;-66
2022/06/03 01:13:24;;;;;;;10.80;5.40;;;;;;;9.79;100.00;102163.50;10217398;28;20041;-66
2022/06/03 01:18:54;;;;;;;11.48;5.53;;;;;;;9.72;100.00;102162.97;10200901;28;20069;-66
2022/06/03 01:24:28;;;;;;;13.95;5.57;;;;;;;9.65;100.00;102167.91;10225778;28;20073;-66
2022/06/03 01:29:34;;;;;;;9.32;5.15;;;;;;;9.61;100.00;102177.78;10215557;28;20103;-66
2022/06/03 01:34:46;;;;;;;10.35;5.68;;;;;;;9.57;100.00;102171.22;10223022;28;20053;-66
2022/06/03 01:40:07;;;;;;;9.00;5.90;;;;;;;9.52;100.00;102176.69;10220649;28;20068;-66
2022/06/03 01:45:09;;;;;;;9.50;5.40;;;;;;;9.45;100.00;102169.59;10226209;28;20135;-66
2022/06/03 01:50:31;;;;;;;8.57;4.77;;;;;;;9.41;100.00;102173.13;10213437;28;20135;-66
2022/06/03 01:56:05;;;;;;;8.48;5.22;;;;;;;9.37;100.00;102167.41;10214336;28;20046;-66
2022/06/03 02:01:04;;;;;;;9.17;5.60;;;;;;;9.32;100.00;102170.13;10210813;28;20045;-66
2022/06/03 02:06:39;;;;;;;12.30;5.95;;;;;;;9.28;100.00;102169.03;10223247;28;20060;-66
2022/06/03 02:11:50;;;;;;;9.70;5.03;;;;;;;9.24;100.00;102170.69;10219822;28;20125;-66
2022/06/03 02:17:05;;;;;;;11.85;5.53;;;;;;;9.23;100.00;102166.31;10217503;28;20041;-66
2022/06/03 02:22:29;;;;;;;11.48;5.63;;;;;;;9.19;100.00;102171.53;10225935;28;20049;-66
2022/06/03 02:27:32;;;;;;;12.05;5.93;;;;;;;9.12;100.00;102167.41;10216326;28;20041;-66
2022/06/03 02:32:56;;;;;;;11.07;5.30;;;;;;;9.08;100.00;102169.06;10216326;28;20068;-66
2022/06/03 02:38:04;;;;;;;10.38;5.60;;;;;;;8.99;100.00;102180.50;10220720;28;20054;-66
2022/06/03 02:43:19;;;;;;;11.63;5.72;;;;;;;8.96;100.00;102167.41;10226049;28;20083;-66
2022/06/03 02:48:31;;;;;;;15.30;7.63;;;;;;;8.89;100.00;102166.00;10217149;28;20045;-66
2022/06/03 02:54:05;;;;;;;10.35;6.00;;;;;;;8.83;100.00;102162.47;10219777;28;20064;-66
2022/06/03 02:59:29;;;;;;;8.82;5.25;;;;;;;8.76;100.00;102165.47;10221201;28;20083;-66
2022/06/03 03:04:43;;;;;;;8.65;4.70;;;;;;;8.74;100.00;102175.00;10221629;28;20069;-65
2022/06/03 03:10:09;;;;;;;12.40;6.45;;;;;;;8.77;100.00;102166.28;10220935;28;20104;-66
2022/06/03 03:15:50;;;;;;;9.13;5.30;;;;;;;8.71;100.00;102172.81;10225756;28;20600;-66
2022/06/03 03:21:06;;;;;;;12.43;5.70;;;;;;;8.74;100.00;102180.47;10135891;28;20073;-66
2022/06/03 03:26:23;;;;;;;9.68;5.72;;;;;;;8.72;100.00;102169.00;10211304;28;20088;-66
2022/06/03 03:31:36;;;;;;;8.48;5.57;;;;;;;8.68;100.00;102170.63;10223313;28;20053;-66
2022/06/03 03:37:06;;;;;;;7.80;4.90;;;;;;;8.64;100.00;102165.72;10214134;28;20555;-66
2022/06/03 03:42:25;;;;;;;10.30;5.28;;;;;;;8.59;100.00;102168.44;10227070;28;20069;-66
2022/06/03 03:47:50;;;;;;;12.00;5.57;;;;;;;8.57;100.00;102170.59;10227743;28;20562;-66
2022/06/03 03:53:08;;;;;;;11.73;6.05;;;;;;;8.57;100.00;102181.50;10224644;28;20092;-66
2022/06/03 03:58:46;;;;;;;8.90;5.55;;;;;;;8.58;100.00;102177.69;10216232;28;20045;-65
2022/06/03 04:04:07;;;;;;;11.50;5.93;;;;;;;8.62;100.00;102183.44;10226641;28;20042;-65
2022/06/03 04:09:19;;;;;;;11.40;6.10;;;;;;;8.62;100.00;102189.69;10221111;28;20749;-65
2022/06/03 04:14:40;;;;;;;10.75;5.53;;;;;;;8.69;100.00;102191.38;10224688;28;20053;-65
2022/06/03 04:20:05;;;;;;;9.45;6.00;;;;;;;8.74;100.00;102188.63;10212813;28;20066;-66
2022/06/03 04:25:28;;;;;;;10.60;5.57;;;;;;;8.79;100.00;102199.56;10219398;28;20053;-68
2022/06/03 04:30:46;;;;;;;12.57;6.93;;;;;;;8.83;100.00;102203.38;10211033;28;20486;-65
2022/06/03 04:36:21;;;;;;;16.20;8.32;;;;;;;8.87;100.00;102200.94;10214271;28;20467;-65
2022/06/03 04:41:36;;;;;;;;;;;;;;;8.92;100.00;102203.69;10219221;28;20133;-65
2022/06/03 04:47:06;;;;;;;12.95;8.45;;;;;;;8.99;100.00;102199.59;10225080;28;19925;-65
2022/06/03 04:52:25;;;;;;;15.07;8.38;;;;;;;9.11;100.00;102206.72;10216098;28;20164;-65
2022/06/03 04:57:50;;;;;;;15.18;8.32;;;;;;;9.23;100.00;102204.53;10194467;28;20103;-65
2022/06/03 05:02:54;;;;;;;18.90;10.38;;;;;;;9.36;100.00;102193.06;10224897;28;20049;-65
2022/06/03 05:08:24;;;;;;;16.90;8.98;;;;;;;9.44;100.00;102195.22;10216776;28;20046;-65
2022/06/03 05:13:58;;;;;;;23.08;11.60;;;;;;;9.55;100.00;102195.25;10224669;28;20137;-65
2022/06/03 05:18:55;;;;;;;19.00;10.90;;;;;;;9.63;100.00;102191.94;10222053;28;20080;-65
2022/06/03 05:24:33;;;;;;;20.42;11.07;;;;;;;9.76;100.00;102191.38;10221917;28;20132;-66
2022/06/03 05:29:51;;;;;;;19.38;11.52;;;;;;;9.85;100.00;102189.72;10216758;28;20459;-65
2022/06/03 05:35:04;;;;;;;16.05;10.60;;;;;;;9.98;100.00;102198.41;10217997;28;20049;-65
2022/06/03 05:40:27;;;;;;;16.60;10.18;;;;;;;10.10;100.00;102201.69;10221098;28;20053;-65
2022/06/03 05:45:32;;;;;;;18.40;10.18;;;;;;;10.17;100.00;102202.22;10212213;28;20076;-65
2022/06/03 05:50:34;;;;;;;16.38;9.80;;;;;;;10.29;100.00;102197.25;10207488;28;20042;-66
2022/06/03 05:55:53;;;;;;;15.95;10.88;;;;;;;10.43;100.00;102204.88;10221667;28;20096;-66
2022/06/03 06:01:25;;;;;;;17.30;10.48;;;;;;;10.55;100.00;102191.69;10219195;28;20477;-65
2022/06/03 06:06:48;;;;;;;15.63;10.50;;;;;;;10.65;100.00;102193.53;10236553;28;20042;-65
2022/06/03 06:12:03;;;;;;;19.05;12.38;;;;;;;10.80;100.00;102187.97;10221976;28;20164;-66
2022/06/03 06:17:23;;;;;;;16.77;11.25;;;;;;;10.88;100.00;102186.56;10221012;28;20041;-66
2022/06/03 06:22:30;;;;;;;20.70;11.32;;;;;;;10.98;100.00;102194.72;10215214;28;20095;-66
2022/06/03 06:27:57;;;;;;;20.30;11.00;;;;;;;11.11;100.00;102188.56;10217466;28;20095;-66
2022/06/03 06:33:11;;;;;;;21.15;10.80;;;;;;;11.26;100.00;102184.91;10220510;28;20054;-66
2022/06/03 06:38:35;;;;;;;20.08;9.80;;;;;;;11.42;100.00;102191.06;10219984;28;20464;-66
2022/06/03 06:43:57;;;;;;;17.65;9.80;;;;;;;11.55;100.00;102187.66;10231880;28;20099;-65
2022/06/03 06:49:07;;;;;;;18.60;9.60;;;;;;;11.65;100.00;102189.50;10227561;28;20114;-66
2022/06/03 06:54:24;;;;;;;19.13;9.07;;;;;;;11.78;100.00;102174.28;10221368;28;20869;-66
2022/06/03 06:59:28;;;;;;;14.60;8.60;;;;;;;11.97;100.00;102180.69;10215357;28;20085;-66
2022/06/03 07:04:34;;;;;;;17.08;9.10;;;;;;;12.07;100.00;102174.28;10220112;28;20045;-66
2022/06/03 07:09:52;;;;;;;12.55;7.18;;;;;;;12.25;100.00;102172.66;10228051;28;20132;-66
2022/06/03 07:14:58;;;;;;;13.23;7.03;;;;;;;12.40;100.00;102172.47;10228108;28;20085;-66
2022/06/03 07:20:14;;;;;;;14.30;5.25;;;;;;;12.52;100.00;102169.28;10225490;28;20104;-65
2022/06/03 07:25:30;;;;;;;8.38;4.00;;;;;;;12.71;100.00;102169.28;10222913;28;20541;-66
2022/06/03 07:30:41;;;;;;;8.77;4.18;;;;;;;12.89;100.00;102161.38;10218183;28;20455;-65
2022/06/03 07:35:37;;;;;;;10.45;3.58;;;;;;;12.92;100.00;102158.00;10228251;28;21008;-66
2022/06/03 07:40:52;;;;;;;7.90;3.97;;;;;;;13.06;100.00;102142.41;10226998;28;20081;-66
2022/06/03 07:46:04;;;;;;;10.13;4.63;;;;;;;13.20;100.00;102139.69;10217216;28;20069;-66
2022/06/03 07:51:04;;;;;;;11.17;4.17;;;;;;;13.32;100.00;102139.25;10223657;28;20072;-66
2022/06/03 07:56:05;;;;;;;9.98;4.05;;;;;;;13.43;100.00;102133.28;10223906;28;20065;-66
2022/06/03 08:01:02;;;;;;;10.50;4.05;;;;;;;13.57;100.00;102125.06;10213847;28;20049;-66
2022/06/03 08:06:00;;;;;;;13.32;3.90;;;;;;;13.77;100.00;102128.53;10220496;28;20049;-66
2022/06/03 08:11:05;;;;;;;9.82;3.58;;;;;;;13.95;100.00;102119.38;10224351;28;20144;-66
2022/06/03 08:16:05;;;;;;;8.35;4.25;;;;;;;14.08;100.00;102117.72;10217626;28;20136;-66
2022/06/03 08:21:10;;;;;;;5.93;3.08;;;;;;;14.18;100.00;102111.19;10220080;28;20045;-66
2022/06/03 08:26:15;;;;;;;7.07;2.58;;;;;;;14.33;100.00;102113.59;10218448;28;20054;-66
2022/06/03 08:31:12;;;;;;;6.50;1.92;;;;;;;14.44;100.00;102120.50;10214264;28;20041;-66
2022/06/03 08:36:14;;;;;;;5.70;2.22;;;;;;;14.65;100.00;102122.81;10223786;28;20535;-66
2022/06/03 08:41:13;;;;;;;6.20;2.03;;;;;;;14.80;98.66;102122.44;10221121;28;20056;-66
2022/06/03 08:46:24;;;;;;;4.60;1.80;;;;;;;14.97;100.00;102120.94;10226231;28;20160;-66
2022/06/03 08:51:27;;;;;;;5.90;2.10;;;;;;;15.19;100.00;102120.94;10217707;28;20520;-65
2022/06/03 08:56:31;;;;;;;6.88;2.03;;;;;;;15.40;99.11;102123.16;10220326;28;20081;-66
2022/06/03 09:01:46;;;;;;;7.28;1.98;;;;;;;15.49;93.00;102126.78;10209615;28;20042;-66
2022/06/03 09:06:45;;;;;;;5.60;2.75;;;;;;;15.55;91.95;102120.00;10216309;28;20045;-66
2022/06/03 09:11:51;;;;;;;7.57;2.17;;;;;;;15.70;93.28;102118.75;10215196;28;20132;-66
2022/06/03 09:16:54;;;;;;;4.85;1.50;;;;;;;15.96;98.13;102124.38;10220548;28;20493;-66
2022/06/03 09:21:53;;;;;;;6.40;2.25;;;;;;;16.11;85.93;102121.19;10227088;28;20052;-66
2022/06/03 09:26:53;;;;;;;6.55;2.60;;;;;;;16.22;95.27;102120.88;10219474;28;20521;-66
2022/06/03 09:31:58;;;;;;;8.27;1.52;;;;;;;16.43;89.82;102121.88;10226660;28;20041;-66
2022/06/03 09:36:54;;;;;;;5.60;2.05;;;;;;;16.61;82.52;102117.97;10221285;28;20059;-66
2022/06/03 09:42:12;;;;;;;10.50;5.30;;;;;;;16.70;74.49;102111.66;10222270;28;20042;-66
2022/06/03 09:47:11;;;;;;;3.67;1.38;;;;;;;16.85;71.76;102099.31;10222353;28;20100;-66
2022/06/03 09:52:12;;;;;;;7.50;1.20;;;;;;;17.13;66.51;102094.25;10221132;28;20041;-66
2022/06/03 09:57:25;;;;;;;3.67;1.40;;;;;;;17.41;64.13;102095.44;10212906;28;20050;-66
2022/06/03 10:02:21;;;;;;;6.72;1.70;;;;;;;17.59;56.04;102093.41;10209296;28;20092;-66
2022/06/03 10:07:18;;;;;;;4.75;1.10;;;;;;;17.80;54.11;102087.13;10217211;28;20064;-66
2022/06/03 10:17:33;;;;;;;2.08;0.90;;;;;;;20.41;49.81;102080.78;10217555;28;20068;-66
2022/06/03 10:22:35;;;;;;;;;;;;;;;21.32;41.58;102068.97;10228546;28;20041;-66
2022/06/03 10:27:32;;;;;;;4.97;0.95;;;;;;;22.26;40.65;102067.25;10226430;28;19971;-64
2022/06/03 10:32:28;;;;;;;2.78;0.98;;;;;;;23.02;37.95;102067.59;10229088;28;20088;-66
2022/06/03 10:37:26;;;;;;;6.68;1.63;;;;;;;23.56;33.58;102065.69;10231235;28;20099;-65
2022/06/03 10:42:23;;;;;;;5.38;1.60;;;;;;;24.71;40.83;102056.88;10227770;28;20073;-65
2022/06/03 10:47:23;;;;;;;6.50;1.10;;;;;;;24.65;31.42;102049.25;10226935;28;20459;-65
2022/06/03 11:03:36;;;;;;;5.93;2.67;;;;;;;25.91;28.83;102031.53;10217915;28;20769;-65
2022/06/03 11:08:58;;;;;;;4.55;0.75;;;;;;;26.17;29.26;102028.44;10218288;28;20525;-65
2022/06/03 11:13:55;;;;;;;3.58;0.73;;;;;;;26.87;30.02;102022.63;10220165;28;20078;-65
2022/06/03 11:18:52;;;;;;;2.40;0.77;;;;;;;26.91;31.07;102009.41;10221316;28;20068;-65
2022/06/03 11:23:49;;;;;;;3.88;1.20;;;;;;;26.95;27.22;102004.63;10217456;28;20103;-65
2022/06/03 11:28:56;;;;;;;4.45;1.30;;;;;;;26.61;25.39;101999.34;10224712;28;20045;-65
2022/06/03 11:34:14;;;;;;;3.60;1.15;;;;;;;26.28;26.29;101994.03;10215996;28;20045;-65
2022/06/03 11:39:19;;;;;;;4.63;1.17;;;;;;;26.89;29.43;101994.19;10211413;28;20103;-65
2022/06/03 11:44:26;;;;;;;2.92;0.75;;;;;;;26.31;26.89;101990.44;10212681;28;20045;-65
2022/06/03 11:49:24;;;;;;;3.95;1.00;;;;;;;25.91;28.82;101983.91;10224332;28;20050;-65
2022/06/03 11:54:25;;;;;;;3.83;0.90;;;;;;;26.17;34.94;101977.19;10210650;28;20103;-65
2022/06/03 11:59:50;;;;;;;5.68;2.50;;;;;;;25.13;32.33;101970.94;10221688;28;20046;-65
2022/06/03 12:05:15;;;;;;;19.00;11.25;;;;;;;25.67;33.06;101960.13;10218230;28;20045;-66
2022/06/03 12:10:25;;;;;;;21.30;13.98;;;;;;;26.01;28.86;101952.31;10217374;28;20140;-65
2022/06/03 12:15:30;;;;;;;10.73;5.68;;;;;;;26.30;36.95;101947.59;10210239;28;20045;-65
2022/06/03 12:20:29;;;;;;;14.95;10.18;;;;;;;25.87;29.60;101935.44;10225688;28;20067;-67
2022/06/03 12:25:40;;;;;;;5.43;1.40;;;;;;;25.09;28.42;101933.75;10227439;28;20041;-65
2022/06/03 12:30:44;;;;;;;5.63;2.10;;;;;;;24.88;36.81;101921.22;10226984;28;20053;-65
2022/06/03 12:35:44;;;;;;;34.33;23.42;;;;;;;24.25;41.08;101924.97;10227321;28;20041;-65
2022/06/03 12:40:41;;;;;;;2.83;0.95;;;;;;;23.51;32.06;101918.88;10226530;28;20513;-65
2022/06/03 12:45:40;;;;;;;19.40;12.02;;;;;;;23.21;47.39;101910.47;10224207;28;20509;-64
2022/06/03 12:50:39;;;;;;;13.73;7.38;;;;;;;23.14;36.70;101904.78;10227253;28;20069;-64
2022/06/03 12:55:37;;;;;;;3.63;1.50;;;;;;;23.27;41.70;101908.97;10226350;28;20137;-64
2022/06/03 13:00:36;;;;;;;2.70;0.98;;;;;;;23.12;36.78;101901.56;10205275;28;20046;-64
2022/06/03 13:05:46;;;;;;;2.05;0.77;;;;;;;23.96;50.66;101899.53;10220790;28;20061;-64
2022/06/03 13:11:01;;;;;;;3.60;1.20;;;;;;;24.00;33.88;101900.38;10220234;28;20064;-66
2022/06/03 13:16:16;;;;;;;2.08;0.80;;;;;;;23.95;41.48;101892.34;10224396;28;20109;-66
2022/06/03 13:21:18;;;;;;;2.90;0.90;;;;;;;23.56;35.10;101886.25;10213605;28;20505;-66
2022/06/03 13:26:23;;;;;;;;;;;;;;;23.07;39.57;101893.53;10215844;28;20080;-66
2022/06/03 13:31:41;;;;;;;6.88;3.95;;;;;;;22.75;40.74;101879.84;10213777;28;19960;-65
2022/06/03 13:36:50;;;;;;;6.32;3.75;;;;;;;22.61;37.76;101872.06;10208438;28;20095;-66
2022/06/03 13:47:07;;;;;;;4.88;1.90;;;;;;;22.37;39.84;101862.09;10200417;28;20129;-66
2022/06/03 13:52:08;;;;;;;2.75;0.85;;;;;;;22.37;38.20;101867.69;10205839;28;20509;-66
2022/06/03 13:57:31;;;;;;;2.30;0.80;;;;;;;22.60;44.39;101866.84;10206796;28;20560;-66
2022/06/03 14:02:38;;;;;;;2.47;0.70;;;;;;;22.80;46.80;101865.59;10219987;28;20041;-67
2022/06/03 14:07:43;;;;;;;3.17;1.00;;;;;;;22.61;38.65;101860.13;10218924;28;20666;-67
2022/06/03 14:13:15;;;;;;;3.55;0.98;;;;;;;22.56;50.50;101860.41;10221615;28;20631;-66
2022/06/03 14:18:32;;;;;;;2.13;0.80;;;;;;;22.70;37.76;101857.88;10188546;28;20433;-66
2022/06/03 14:23:45;;;;;;;2.60;0.90;;;;;;;23.89;38.67;101849.97;10218794;28;20565;-66
2022/06/03 14:28:52;;;;;;;7.28;4.82;;;;;;;23.97;47.00;101853.63;10220512;28;20042;-66
2022/06/03 14:33:53;;;;;;;15.10;11.85;;;;;;;23.59;52.31;101863.94;10208922;28;20073;-66
2022/06/03 14:38:55;;;;;;;4.28;2.25;;;;;;;23.28;37.82;101860.34;10206843;28;20045;-66
2022/06/03 14:43:54;;;;;;;16.52;10.63;;;;;;;23.32;50.81;101860.38;10206049;28;20103;-67
2022/06/03 14:49:00;;;;;;;7.90;4.18;;;;;;;23.61;40.56;101853.19;10193772;28;20146;-66
2022/06/03 14:54:03;;;;;;;3.42;1.10;;;;;;;23.99;39.92;101851.25;10199283;28;20141;-67
2022/06/03 14:59:04;;;;;;;2.63;0.70;;;;;;;23.92;51.90;101853.97;10206535;28;20080;-66
2022/06/03 15:04:22;;;;;;;2.33;0.80;;;;;;;23.91;49.90;101846.81;10218951;28;20627;-67
2022/06/03 15:09:26;;;;;;;1.60;0.57;;;;;;;23.94;58.94;101843.22;10223071;28;20041;-67
2022/06/03 15:14:24;;;;;;;13.18;10.55;;;;;;;23.78;44.99;101842.66;10225223;28;20114;-66
2022/06/03 15:19:37;;;;;;;10.00;5.65;;;;;;;23.61;66.97;101842.03;10218359;28;20045;-66
2022/06/03 15:24:37;;;;;;;25.13;17.73;;;;;;;23.46;62.31;101826.28;10210298;28;20049;-67
2022/06/03 15:29:35;;;;;;;5.40;1.90;;;;;;;23.47;51.05;101830.69;10207771;28;20782;-67
2022/06/03 15:34:35;;;;;;;25.50;17.73;;;;;;;23.71;43.76;101827.38;10208498;28;20165;-66
2022/06/03 15:39:34;;;;;;;11.77;6.60;;;;;;;23.82;52.45;101826.75;10208815;28;20473;-66
2022/06/03 15:44:35;;;;;;;31.42;21.13;;;;;;;23.88;46.07;101833.56;10207106;28;20524;-66
2022/06/03 15:49:33;;;;;;;5.57;2.27;;;;;;;23.98;55.28;101824.53;10197185;28;20129;-67
2022/06/03 15:54:33;;;;;;;3.35;1.27;;;;;;;24.11;50.04;101816.66;10221833;28;20485;-67
2022/06/03 15:59:58;;;;;;;9.57;4.15;;;;;;;24.64;44.31;101826.72;10218493;28;20050;-67
2022/06/03 16:05:19;;;;;;;26.15;16.15;;;;;;;25.81;51.96;101815.34;10220852;28;20046;-67
2022/06/03 16:10:28;;;;;;;6.45;2.70;;;;;;;26.60;46.17;101815.44;10219471;28;20049;-67
2022/06/03 16:15:33;;;;;;;11.45;7.38;;;;;;;27.18;34.81;101815.34;10223280;28;20072;-67
2022/06/03 16:20:47;;;;;;;11.00;7.35;;;;;;;27.00;36.28;101816.16;10226623;28;20046;-67
2022/06/03 16:26:27;;;;;;;7.63;3.83;;;;;;;27.44;47.66;101817.66;10226720;28;20041;-66
2022/06/03 16:31:30;;;;;;;8.23;5.45;;;;;;;27.82;39.83;101820.66;10212052;28;20081;-64
2022/06/03 16:36:35;;;;;;;12.88;7.47;;;;;;;27.74;44.06;101807.06;10204860;28;20058;-65
2022/06/03 16:42:00;;;;;;;11.20;7.05;;;;;;;27.10;46.92;101819.34;10205188;28;20054;-64
2022/06/03 16:47:24;;;;;;;12.20;8.50;;;;;;;26.95;40.29;101813.00;10211509;28;20789;-64
2022/06/03 16:52:28;;;;;;;7.32;4.68;;;;;;;27.18;37.90;101804.91;10202434;28;20073;-64
2022/06/03 16:57:28;;;;;;;18.95;13.20;;;;;;;27.38;34.47;101802.41;10215771;28;20099;-64
2022/06/03 17:02:25;;;;;;;29.58;22.08;;;;;;;27.52;36.24;101798.75;10218708;28;20061;-65
2022/06/03 17:07:37;;;;;;;24.05;16.27;;;;;;;27.04;47.47;101804.94;10221117;28;20497;-65
2022/06/03 17:12:40;;;;;;;26.45;20.33;;;;;;;25.95;38.96;101802.59;10222614;28;20046;-65
2022/06/03 17:17:37;;;;;;;31.38;23.02;;;;;;;25.56;47.71;101804.06;10210949;28;20495;-65
2022/06/03 17:22:42;;;;;;;22.80;16.55;;;;;;;25.05;37.55;101795.81;10226990;28;20142;-65
2022/06/03 17:27:44;;;;;;;72.57;53.60;;;;;;;24.66;42.22;101799.97;10216475;28;20049;-65
2022/06/03 17:32:56;;;;;;;18.20;11.50;;;;;;;25.01;40.70;101790.19;10222524;28;20096;-65
2022/06/03 17:38:09;;;;;;;10.70;7.20;;;;;;;26.20;41.77;101791.38;10225480;28;20498;-65
2022/06/03 17:43:41;;;;;;;10.32;6.80;;;;;;;27.11;48.73;101798.50;10225712;28;20081;-65
2022/06/03 17:48:51;;;;;;;14.98;11.48;;;;;;;26.62;45.57;101801.00;10199282;28;20046;-65
2022/06/03 17:59:22;;;;;;;5.57;2.70;;;;;;;25.32;41.95;101813.16;10217695;28;20591;-65
2022/06/03 18:04:40;;;;;;;19.42;12.02;;;;;;;24.26;41.04;101812.03;10202074;28;20074;-64
2022/06/03 18:10:03;;;;;;;17.60;11.70;;;;;;;23.82;47.73;101810.00;10210574;28;20119;-64
2022/06/03 18:15:23;;;;;;;13.63;8.77;;;;;;;23.29;52.82;101806.16;10211128;28;20195;-64
2022/06/03 18:20:52;;;;;;;7.28;2.08;;;;;;;22.80;52.17;101801.47;10210717;28;20046;-64
2022/06/03 18:26:13;;;;;;;4.20;2.15;;;;;;;22.46;66.50;101806.94;10203167;28;20049;-64
2022/06/03 18:31:40;;;;;;;3.53;1.30;;;;;;;22.21;49.99;101814.03;10227814;28;20081;-64
2022/06/03 18:37:05;;;;;;;24.45;15.93;;;;;;;22.16;90.13;101822.69;10228991;28;20148;-65
2022/06/03 18:48:00;;;;;;;12.52;7.55;;;;;;;21.75;89.07;101825.13;10176672;28;20141;-65
2022/06/03 18:53:15;;;;;;;13.55;8.27;;;;;;;21.66;100.00;101827.31;10218823;28;20112;-65
2022/06/03 18:58:46;;;;;;;3.45;1.25;;;;;;;21.49;100.00;101834.09;10221220;28;20889;-65
2022/06/03 19:04:21;;;;;;;7.18;1.40;;;;;;;21.29;100.00;101836.06;10225152;28;20165;-65
2022/06/03 19:09:26;;;;;;;4.95;1.80;;;;;;;21.07;100.00;101852.25;10216786;28;20132;-65
2022/06/03 19:14:40;;;;;;;3.85;1.02;;;;;;;20.79;100.00;101853.22;10215394;28;20122;-66
2022/06/03 19:19:58;;;;;;;3.95;1.65;;;;;;;20.39;100.00;101856.94;10225482;28;20069;-65
2022/06/03 19:25:09;;;;;;;4.72;1.15;;;;;;;20.24;100.00;101862.47;10224917;28;20050;-65
2022/06/03 19:30:10;;;;;;;3.45;0.90;;;;;;;20.09;100.00;101859.31;10229794;28;20140;-66
2022/06/03 19:35:23;;;;;;;4.88;1.20;;;;;;;19.92;100.00;101871.56;10217724;28;20049;-65
2022/06/03 19:40:32;;;;;;;5.78;1.75;;;;;;;19.77;100.00;101886.19;10207691;28;20046;-65
2022/06/03 19:45:34;;;;;;;5.03;1.40;;;;;;;19.65;100.00;101883.41;10223277;28;20091;-65
2022/06/03 19:51:00;;;;;;;5.07;1.70;;;;;;;19.47;100.00;101892.03;10224030;28;20053;-65
2022/06/03 19:56:00;;;;;;;5.05;1.60;;;;;;;19.37;100.00;101900.81;10227828;28;20073;-65
2022/06/03 20:00:58;;;;;;;5.88;2.13;;;;;;;19.25;100.00;101898.06;10229703;28;20128;-65
2022/06/03 20:06:16;;;;;;;4.57;1.70;;;;;;;19.10;100.00;101897.63;10226993;28;20041;-65
2022/06/03 20:16:46;;;;;;;5.53;1.80;;;;;;;18.91;100.00;101900.16;10223368;28;20069;-66
2022/06/03 20:21:45;;;;;;;4.22;1.95;;;;;;;18.77;100.00;101897.72;10215412;28;20540;-66
2022/06/03 20:27:07;;;;;;;7.88;2.22;;;;;;;18.53;100.00;101906.78;10207334;28;20068;-67
2022/06/03 20:32:16;;;;;;;5.63;2.15;;;;;;;18.47;100.00;101919.22;10220196;28;20045;-67
2022/06/03 20:37:43;;;;;;;5.15;2.00;;;;;;;18.34;100.00;101909.28;10226472;28;20080;-64
2022/06/03 20:42:57;;;;;;;6.07;2.20;;;;;;;18.21;100.00;101912.00;10226732;28;20068;-65
2022/06/03 20:48:09;;;;;;;7.25;2.40;;;;;;;18.18;100.00;101923.78;10218940;28;20649;-65
2022/06/03 20:53:20;;;;;;;5.50;2.20;;;;;;;18.04;100.00;101928.78;10215206;28;20075;-65
2022/06/03 20:58:29;;;;;;;5.22;2.15;;;;;;;17.94;100.00;101931.94;10220938;28;20563;-65
2022/06/03 21:14:03;;;;;;;5.28;2.60;;;;;;;17.62;100.00;101950.91;10217687;28;20051;-65
2022/06/03 21:19:00;;;;;;;7.40;2.72;;;;;;;17.50;100.00;101950.78;10219008;28;20076;-65
2022/06/03 21:24:24;;;;;;;6.70;2.63;;;;;;;17.42;100.00;101953.28;10224177;28;20129;-65
2022/06/03 21:29:20;;;;;;;7.25;2.95;;;;;;;17.33;100.00;101955.28;10217889;28;20462;-65
2022/06/03 21:35:04;;;;;;;6.25;2.47;;;;;;;17.23;100.00;101972.25;10216177;28;20630;-65
2022/06/03 21:40:09;;;;;;;7.13;3.35;;;;;;;17.13;100.00;101967.94;10217623;28;20129;-65
2022/06/03 21:45:13;;;;;;;6.63;3.20;;;;;;;17.02;100.00;101973.00;10214063;28;20052;-65
2022/06/03 21:50:31;;;;;;;5.43;3.28;;;;;;;16.97;100.00;101975.94;10216695;28;20045;-65
2022/06/03 21:55:41;;;;;;;6.68;3.15;;;;;;;16.83;100.00;101975.34;10215760;28;20068;-64
2022/06/03 22:00:43;;;;;;;5.72;3.55;;;;;;;16.74;100.00;101982.81;10221472;28;20075;-64
2022/06/03 22:05:40;;;;;;;7.05;3.53;;;;;;;16.64;100.00;101989.50;10225532;28;20037;-65
2022/06/03 22:10:39;;;;;;;7.38;3.90;;;;;;;16.53;100.00;101994.56;10229640;28;20049;-64
2022/06/03 22:15:36;;;;;;;6.63;3.95;;;;;;;16.39;100.00;101994.75;10235169;28;20045;-65
2022/06/03 22:20:36;;;;;;;7.53;4.43;;;;;;;16.34;100.00;101999.63;10239603;28;20053;-65
2022/06/03 22:26:18;;;;;;;8.50;5.30;;;;;;;16.27;100.00;102008.41;10232563;28;20054;-65
2022/06/03 22:31:28;;;;;;;7.28;5.00;;;;;;;16.11;100.00;102010.81;10233240;28;20212;-65
2022/06/03 22:36:35;;;;;;;8.05;4.50;;;;;;;15.98;100.00;102017.28;10226388;28;20045;-65
2022/06/03 22:41:34;;;;;;;9.60;4.15;;;;;;;15.84;100.00;102011.13;10234658;28;20508;-64
2022/06/03 22:46:35;;;;;;;8.80;4.75;;;;;;;15.78;100.00;102014.03;10230175;28;20054;-64
2022/06/03 22:51:32;;;;;;;7.93;4.60;;;;;;;15.68;100.00;102013.47;10236964;28;20045;-64
2022/06/03 22:56:28;;;;;;;11.30;4.82;;;;;;;15.58;100.00;102011.84;10224209;28;20072;-64
2022/06/03 23:01:26;;;;;;;12.02;5.03;;;;;;;15.50;100.00;102015.38;10227030;28;20065;-64
2022/06/03 23:06:23;;;;;;;4.93;3.83;;;;;;;15.43;100.00;102012.28;10230485;28;20111;-64
2022/06/03 23:11:19;;;;;;;9.23;4.05;;;;;;;15.41;100.00;102009.84;10228740;28;20049;-64
2022/06/03 23:16:17;;;;;;;6.05;4.47;;;;;;;15.36;100.00;102010.81;10225604;28;20103;-64
2022/06/03 23:21:17;;;;;;;6.28;3.97;;;;;;;15.30;100.00;102008.53;10216590;28;20045;-64
2022/06/03 23:26:21;;;;;;;9.20;4.53;;;;;;;15.22;100.00;102012.84;10227877;28;20045;-64
2022/06/03 23:31:20;;;;;;;10.35;4.82;;;;;;;15.18;100.00;102011.88;10216714;28;20045;-64
2022/06/03 23:36:18;;;;;;;7.88;4.75;;;;;;;15.02;100.00;102019.75;10218932;28;20509;-64
2022/06/03 23:46:29;;;;;;;8.57;4.38;;;;;;;14.87;100.00;102029.19;10222979;28;20099;-64
2022/06/03 23:51:26;;;;;;;7.63;4.00;;;;;;;14.77;100.00;102023.97;10227079;28;20194;-65
2022/06/03 23:56:38;;;;;;;8.93;3.70;;;;;;;14.69;100.00;102032.97;10224223;28;20136;-64
